Time;durP1;ratioP1;P1;durP2;ratioP2;P2;SDS_P1;SDS_P2;PMS_P1;PMS_P2;Temp;Humidity;BMP_temperature;BMP_pressure;BME280_temperature;BME280_humidity;BME280_pressure;Samples;Min_cycle;Max_cycle;Signal;HPM_P1;HPM_P2
2022/01/13 00:01:57;;;;;;;57.92;22.62;;;2.90;99.90;;;;;;7199444;32;20594;-76
2022/01/13 00:05:59;;;;;;;54.03;22.35;;;2.90;99.90;;;;;;7212258;32;20125;-76
2022/01/13 00:10:03;;;;;;;53.95;21.75;;;2.90;99.90;;;;;;7207278;32;20171;-76
2022/01/13 00:18:14;;;;;;;60.67;22.73;;;2.90;99.90;;;;;;7181995;32;20168;-77
2022/01/13 00:22:44;;;;;;;52.67;21.70;;;3.00;99.90;;;;;;7189478;32;20302;-76
2022/01/13 00:26:47;;;;;;;62.92;23.05;;;3.00;99.90;;;;;;7191946;32;20770;-76
2022/01/13 00:30:53;;;;;;;51.50;22.58;;;3.00;99.90;;;;;;7187120;32;20211;-76
2022/01/13 00:34:55;;;;;;;54.40;22.25;;;3.00;99.90;;;;;;7186995;32;20109;-76
2022/01/13 00:38:59;;;;;;;51.28;21.95;;;3.10;99.90;;;;;;7194231;32;21145;-76
2022/01/13 00:43:01;;;;;;;51.42;22.50;;;3.00;99.90;;;;;;7206430;32;20579;-76
2022/01/13 00:47:07;;;;;;;54.90;22.37;;;3.10;99.90;;;;;;7191697;32;20359;-76
2022/01/13 00:51:09;;;;;;;51.65;22.48;;;3.10;99.90;;;;;;7194296;32;20203;-77
2022/01/13 00:55:15;;;;;;;54.50;22.75;;;3.00;99.90;;;;;;7206455;32;20527;-76
2022/01/13 00:59:17;;;;;;;58.70;22.80;;;3.00;99.90;;;;;;7191118;32;20108;-76
2022/01/13 01:03:19;;;;;;;61.40;24.15;;;3.00;99.90;;;;;;7208185;32;20220;-76
2022/01/13 01:07:21;;;;;;;61.08;23.02;;;3.00;99.90;;;;;;7191369;32;20611;-77
2022/01/13 01:11:26;;;;;;;53.25;21.62;;;2.90;99.90;;;;;;7203723;32;20315;-77
2022/01/13 01:15:30;;;;;;;57.38;23.55;;;3.00;99.90;;;;;;7204461;32;20640;-76
2022/01/13 01:19:31;;;;;;;56.45;23.02;;;3.00;99.90;;;;;;7190435;32;20231;-77
2022/01/13 01:24:55;;;;;;;61.90;23.95;;;3.00;99.90;;;;;;7190187;32;20113;-76
2022/01/13 01:28:14;;;;;;;63.78;24.63;;;3.00;99.90;;;;;;7189847;32;20448;-77
2022/01/13 01:32:17;;;;;;;61.08;25.80;;;2.90;99.90;;;;;;7203606;32;20272;-76
2022/01/13 01:36:18;;;;;;;61.17;26.37;;;2.80;99.90;;;;;;7185485;32;20301;-77
2022/01/13 01:40:21;;;;;;;62.10;26.08;;;2.90;99.90;;;;;;7204385;32;20546;-77
2022/01/13 01:44:31;;;;;;;57.15;24.08;;;2.90;99.90;;;;;;7180577;32;20181;-77
2022/01/13 01:48:35;;;;;;;64.47;27.00;;;2.90;99.90;;;;;;7191140;32;20121;-76
2022/01/13 01:52:39;;;;;;;65.85;28.02;;;2.80;99.90;;;;;;7203100;32;20207;-76
2022/01/13 01:56:43;;;;;;;63.83;25.60;;;2.80;99.90;;;;;;7192483;32;20198;-76
2022/01/13 02:00:47;;;;;;;62.85;28.02;;;2.70;99.90;;;;;;7184877;32;20181;-77
2022/01/13 02:04:49;;;;;;;61.47;27.90;;;2.70;99.90;;;;;;7191202;32;20197;-77
2022/01/13 02:08:50;;;;;;;59.30;27.55;;;2.70;99.90;;;;;;7203729;32;20129;-76
2022/01/13 02:13:01;;;;;;;59.33;25.58;;;2.70;99.90;;;;;;7195542;32;20200;-77
2022/01/13 02:17:09;;;;;;;64.12;28.42;;;2.60;99.90;;;;;;7190531;32;20143;-76
2022/01/13 02:21:11;;;;;;;60.50;28.23;;;2.60;99.90;;;;;;7182078;32;20133;-76
2022/01/13 02:25:15;;;;;;;62.72;28.15;;;2.70;99.90;;;;;;7207300;32;20623;-76
2022/01/13 02:29:16;;;;;;;67.05;28.73;;;2.60;99.90;;;;;;7207253;32;20134;-76
2022/01/13 02:33:18;;;;;;;63.87;28.45;;;2.60;99.90;;;;;;7192286;32;20717;-77
2022/01/13 02:37:20;;;;;;;65.82;29.48;;;2.70;99.90;;;;;;7187518;33;20892;-76
2022/01/13 02:41:23;;;;;;;68.72;30.92;;;2.70;99.90;;;;;;7192929;32;20610;-76
2022/01/13 02:45:32;;;;;;;74.00;31.55;;;2.70;99.90;;;;;;7204094;32;20538;-77
2022/01/13 02:49:34;;;;;;;70.28;30.85;;;2.70;99.90;;;;;;7205842;32;20133;-76
2022/01/13 02:53:36;;;;;;;69.10;32.75;;;2.60;99.90;;;;;;7181731;32;20173;-78
2022/01/13 02:57:39;;;;;;;71.32;32.47;;;2.60;99.90;;;;;;7198460;32;20150;-77
2022/01/13 03:01:41;;;;;;;74.20;33.13;;;2.70;99.90;;;;;;7195289;32;20121;-76
2022/01/13 03:05:43;;;;;;;74.70;33.42;;;2.80;99.90;;;;;;7204386;32;20113;-77
2022/01/13 03:09:45;;;;;;;77.43;33.53;;;2.70;99.90;;;;;;7211397;32;20192;-77
2022/01/13 03:13:47;;;;;;;72.70;34.22;;;2.70;99.90;;;;;;7211684;32;20128;-78
2022/01/13 03:17:50;;;;;;;73.47;35.70;;;2.60;99.90;;;;;;7190406;32;20204;-79
2022/01/13 03:21:52;;;;;;;74.55;33.90;;;2.60;99.90;;;;;;7190958;32;20117;-78
2022/01/13 03:25:54;;;;;;;75.43;32.28;;;2.70;99.90;;;;;;7197761;32;20159;-78
2022/01/13 03:29:56;;;;;;;68.62;32.95;;;2.70;99.90;;;;;;7190104;32;20275;-78
2022/01/13 03:33:58;;;;;;;72.35;33.25;;;2.60;99.90;;;;;;7194026;32;20191;-78
2022/01/13 03:38:00;;;;;;;76.82;34.80;;;2.70;99.90;;;;;;7177658;32;20274;-78
2022/01/13 03:42:03;;;;;;;71.57;34.70;;;2.60;99.90;;;;;;7190104;32;20187;-78
2022/01/13 03:46:05;;;;;;;76.97;34.53;;;2.70;99.90;;;;;;7191428;32;20543;-78
2022/01/13 03:50:13;;;;;;;72.07;34.15;;;2.70;99.90;;;;;;7197628;32;20140;-78
2022/01/13 03:54:32;;;;;;;75.55;33.97;;;2.60;99.90;;;;;;7200973;32;20609;-79
2022/01/13 03:59:07;;;;;;;72.20;32.58;;;2.60;99.90;;;;;;7204310;32;20300;-78
2022/01/13 04:03:09;;;;;;;69.95;32.47;;;2.60;99.90;;;;;;7166828;32;20204;-78
2022/01/13 04:07:21;;;;;;;69.70;33.00;;;2.60;99.90;;;;;;7205593;32;20954;-78
2022/01/13 04:11:32;;;;;;;75.37;34.58;;;2.60;99.90;;;;;;7176510;32;20567;-78
2022/01/13 04:15:35;;;;;;;72.53;32.15;;;2.60;99.90;;;;;;7196105;32;20266;-78
2022/01/13 04:19:38;;;;;;;71.15;33.97;;;2.50;99.90;;;;;;7201019;32;20184;-78
2022/01/13 04:23:40;;;;;;;78.55;34.83;;;2.40;99.90;;;;;;7193109;32;20231;-79
2022/01/13 04:27:42;;;;;;;69.72;34.75;;;2.40;99.90;;;;;;7195795;32;20231;-77
2022/01/13 04:31:46;;;;;;;70.43;35.13;;;2.50;99.90;;;;;;7190722;32;20303;-78
2022/01/13 04:35:48;;;;;;;71.68;35.28;;;2.50;99.90;;;;;;7188663;32;20178;-77
2022/01/13 04:39:50;;;;;;;76.65;33.90;;;2.50;99.90;;;;;;7195166;32;20837;-78
2022/01/13 04:43:52;;;;;;;62.72;31.83;;;2.50;99.90;;;;;;7193933;32;20123;-78
2022/01/13 04:47:56;;;;;;;70.75;34.22;;;2.50;99.90;;;;;;7187913;32;20128;-78
2022/01/13 04:51:58;;;;;;;73.22;34.70;;;2.40;99.90;;;;;;7197016;32;20227;-78
2022/01/13 04:56:08;;;;;;;71.80;34.78;;;2.40;99.90;;;;;;7171163;32;20910;-77
2022/01/13 05:00:10;;;;;;;73.95;35.72;;;2.50;99.90;;;;;;7186574;32;20872;-77
2022/01/13 05:04:12;;;;;;;73.53;35.67;;;2.40;99.90;;;;;;7195947;32;20129;-78
2022/01/13 05:08:14;;;;;;;78.10;34.70;;;2.40;99.90;;;;;;7189325;32;20112;-78
2022/01/13 05:12:17;;;;;;;72.28;33.70;;;2.40;99.90;;;;;;7195621;32;20484;-78
2022/01/13 05:16:33;;;;;;;74.85;33.28;;;2.40;99.90;;;;;;7199817;32;20220;-78
2022/01/13 05:20:48;;;;;;;71.72;34.30;;;2.30;99.90;;;;;;7174478;32;20109;-78
2022/01/13 05:24:49;;;;;;;75.78;34.53;;;2.40;99.90;;;;;;7195718;32;20231;-77
2022/01/13 05:28:51;;;;;;;72.72;36.17;;;2.40;99.90;;;;;;7192626;32;20491;-77
2022/01/13 05:32:56;;;;;;;70.18;35.22;;;2.30;99.90;;;;;;7182308;32;20109;-78
2022/01/13 05:36:58;;;;;;;67.97;33.38;;;2.30;99.90;;;;;;7198785;32;20173;-78
2022/01/13 05:40:59;;;;;;;73.50;34.38;;;2.30;99.90;;;;;;7200484;32;20242;-78
2022/01/13 05:45:03;;;;;;;76.97;35.28;;;2.30;99.90;;;;;;7190444;32;20128;-79
2022/01/13 05:49:04;;;;;;;73.25;33.50;;;2.20;99.90;;;;;;7187054;32;20295;-79
2022/01/13 05:53:06;;;;;;;82.03;34.28;;;2.20;99.90;;;;;;7178778;32;20591;-79
2022/01/13 05:57:08;;;;;;;81.90;35.63;;;2.00;99.90;;;;;;7198325;32;20135;-77
2022/01/13 06:01:10;;;;;;;83.97;35.38;;;2.00;99.90;;;;;;7202185;32;20268;-78
2022/01/13 06:05:12;;;;;;;86.12;35.55;;;2.10;99.90;;;;;;7187330;32;20117;-78
2022/01/13 06:09:14;;;;;;;76.10;33.92;;;2.10;99.90;;;;;;7184372;32;20507;-79
2022/01/13 06:13:16;;;;;;;83.62;36.05;;;2.10;99.90;;;;;;7181037;32;20263;-78
2022/01/13 06:17:18;;;;;;;87.05;35.53;;;2.10;99.90;;;;;;7203779;32;20512;-78
2022/01/13 06:21:20;;;;;;;85.07;34.05;;;2.00;99.90;;;;;;7191672;32;20669;-78
2022/01/13 06:25:22;;;;;;;81.50;33.65;;;2.00;99.90;;;;;;7181566;32;20502;-78
2022/01/13 06:29:23;;;;;;;81.10;33.88;;;2.00;99.90;;;;;;7199852;32;20250;-78
2022/01/13 06:33:25;;;;;;;77.15;31.98;;;2.00;99.90;;;;;;7181972;33;20645;-78
2022/01/13 06:37:27;;;;;;;80.82;33.72;;;2.00;99.90;;;;;;7198993;32;20097;-78
2022/01/13 06:41:29;;;;;;;77.93;32.35;;;2.00;99.90;;;;;;7189329;33;20113;-78
2022/01/13 06:45:31;;;;;;;86.15;35.65;;;2.00;99.90;;;;;;7171507;33;20283;-78
2022/01/13 06:49:34;;;;;;;77.60;34.15;;;2.10;99.90;;;;;;7181508;32;20539;-78
2022/01/13 06:53:35;;;;;;;83.22;34.22;;;2.00;99.90;;;;;;7190001;32;20198;-79
2022/01/13 06:57:37;;;;;;;84.87;34.03;;;2.00;99.90;;;;;;7192073;32;21886;-79
2022/01/13 07:01:40;;;;;;;79.78;34.10;;;2.00;99.90;;;;;;7214408;32;20168;-78
2022/01/13 07:05:42;;;;;;;90.80;33.30;;;2.00;99.90;;;;;;7187313;32;20217;-78
2022/01/13 07:09:44;;;;;;;81.55;33.47;;;1.90;99.90;;;;;;7183615;32;20250;-77
2022/01/13 07:13:46;;;;;;;105.97;34.78;;;1.70;99.90;;;;;;7190450;32;20159;-78
2022/01/13 07:17:48;;;;;;;88.80;34.72;;;1.70;99.90;;;;;;7192960;33;20160;-79
2022/01/13 07:21:50;;;;;;;91.45;35.08;;;1.70;99.90;;;;;;7209503;32;20146;-79
2022/01/13 07:25:52;;;;;;;80.43;33.80;;;1.70;99.90;;;;;;7182312;32;20179;-78
2022/01/13 07:29:55;;;;;;;86.03;36.33;;;1.70;99.90;;;;;;7191279;32;20097;-78
2022/01/13 07:33:57;;;;;;;77.90;32.30;;;1.60;99.90;;;;;;7200407;32;20139;-77
2022/01/13 07:37:58;;;;;;;84.07;33.63;;;1.70;99.90;;;;;;7177594;32;20158;-78
2022/01/13 07:42:00;;;;;;;75.50;30.45;;;1.80;99.90;;;;;;7190028;32;20200;-78
2022/01/13 07:46:02;;;;;;;82.35;33.13;;;1.80;99.90;;;;;;7198787;32;20274;-77
2022/01/13 07:50:07;;;;;;;81.65;33.30;;;1.80;99.90;;;;;;7187840;32;20177;-78
2022/01/13 07:54:09;;;;;;;81.00;33.15;;;1.80;99.90;;;;;;7191133;32;20605;-77
2022/01/13 07:58:11;;;;;;;80.00;31.85;;;1.90;99.90;;;;;;7184282;32;20334;-77
2022/01/13 08:02:13;;;;;;;81.03;30.95;;;1.90;99.90;;;;;;7204134;32;20227;-77
2022/01/13 08:06:15;;;;;;;79.53;33.47;;;1.90;99.90;;;;;;7175444;32;20143;-76
2022/01/13 08:10:17;;;;;;;82.47;33.58;;;2.00;99.90;;;;;;7195751;32;20235;-77
2022/01/13 08:14:19;;;;;;;81.70;32.85;;;2.00;99.90;;;;;;7189164;32;20196;-77
2022/01/13 08:22:42;;;;;;;80.18;30.42;;;2.10;99.90;;;;;;7204774;32;20116;-77
2022/01/13 08:26:43;;;;;;;77.55;29.20;;;2.10;99.90;;;;;;7188298;32;20202;-77
2022/01/13 08:30:45;;;;;;;87.43;32.92;;;2.00;99.90;;;;;;7198645;32;20140;-77
2022/01/13 08:34:47;;;;;;;88.55;32.35;;;2.00;99.90;;;;;;7197117;32;20144;-76
2022/01/13 08:38:49;;;;;;;76.72;29.17;;;2.00;99.90;;;;;;7201844;32;20102;-77
2022/01/13 08:42:51;;;;;;;85.80;30.60;;;2.00;99.90;;;;;;7187525;32;20258;-78
2022/01/13 08:46:53;;;;;;;75.97;30.70;;;2.00;99.90;;;;;;7199045;32;20421;-79
2022/01/13 08:50:56;;;;;;;79.10;31.62;;;2.00;99.90;;;;;;7182216;32;20132;-78
2022/01/13 08:54:59;;;;;;;83.25;32.63;;;2.00;99.90;;;;;;7189102;32;20121;-77
2022/01/13 08:59:01;;;;;;;85.03;33.33;;;2.00;99.90;;;;;;7195198;32;20204;-78
2022/01/13 09:03:07;;;;;;;79.50;31.40;;;2.00;99.90;;;;;;7199644;32;20132;-78
2022/01/13 09:07:08;;;;;;;81.78;32.33;;;1.90;99.90;;;;;;7207336;32;20514;-78
2022/01/13 09:11:22;;;;;;;81.80;34.28;;;1.90;99.90;;;;;;7197274;32;20149;-78
2022/01/13 09:15:34;;;;;;;86.28;34.00;;;2.00;99.90;;;;;;7189818;32;20108;-78
2022/01/13 09:19:36;;;;;;;87.57;36.60;;;2.00;99.90;;;;;;7195287;32;20113;-77
2022/01/13 09:23:38;;;;;;;88.60;36.92;;;2.00;99.90;;;;;;7181413;32;20102;-78
2022/01/13 09:27:41;;;;;;;91.20;36.15;;;2.10;99.90;;;;;;7184803;32;20215;-78
2022/01/13 09:31:44;;;;;;;77.90;34.28;;;2.20;99.90;;;;;;7184667;32;20117;-78
2022/01/13 09:35:46;;;;;;;78.62;34.38;;;2.30;99.90;;;;;;7202090;32;20109;-78
2022/01/13 09:39:48;;;;;;;91.80;35.83;;;2.30;99.90;;;;;;7214985;32;20192;-80
2022/01/13 09:43:51;;;;;;;79.22;33.83;;;2.30;99.90;;;;;;7218062;32;20093;-78
2022/01/13 09:47:53;;;;;;;82.70;34.47;;;2.40;99.90;;;;;;7235491;32;20121;-79
2022/01/13 09:51:59;;;;;;;81.07;34.88;;;2.40;99.90;;;;;;7219700;32;20156;-78
2022/01/13 09:56:02;;;;;;;77.45;33.45;;;2.50;99.90;;;;;;7219076;32;20270;-78
2022/01/13 10:00:04;;;;;;;80.82;36.30;;;2.60;99.90;;;;;;7200753;32;20193;-77
2022/01/13 10:04:07;;;;;;;84.90;34.72;;;2.60;99.90;;;;;;7187475;32;20109;-78
2022/01/13 10:08:11;;;;;;;74.57;34.13;;;2.60;99.90;;;;;;7190190;32;20282;-79
2022/01/13 10:12:27;;;;;;;82.28;35.28;;;2.80;99.90;;;;;;7204257;32;20149;-77
2022/01/13 10:16:29;;;;;;;74.85;34.03;;;2.90;99.90;;;;;;7185996;32;20701;-79
2022/01/13 10:20:32;;;;;;;73.00;33.70;;;2.90;99.90;;;;;;7198348;32;20184;-79
2022/01/13 10:24:50;;;;;;;74.80;33.38;;;3.00;99.90;;;;;;7195038;32;20132;-78
2022/01/13 10:28:52;;;;;;;75.80;31.87;;;3.10;99.90;;;;;;7196988;32;20587;-78
2022/01/13 10:32:55;;;;;;;74.12;34.22;;;3.20;99.90;;;;;;7183023;32;20131;-83
2022/01/13 10:37:03;;;;;;;74.22;34.67;;;3.20;99.90;;;;;;7193414;33;20198;-78
2022/01/13 10:42:00;;;;;;;71.53;32.47;;;3.40;99.90;;;;;;7175500;33;20144;-78
2022/01/13 10:46:00;;;;;;;75.87;33.42;;;3.50;99.90;;;;;;7191976;33;20185;-77
2022/01/13 10:50:11;;;;;;;75.00;31.98;;;3.50;99.90;;;;;;7195282;32;20114;-76
2022/01/13 10:54:25;;;;;;;76.90;32.25;;;3.50;99.90;;;;;;7195048;33;20645;-77
2022/01/13 10:58:30;;;;;;;82.18;33.55;;;3.70;99.90;;;;;;7225812;33;20142;-79
2022/01/13 11:02:32;;;;;;;60.10;29.30;;;3.70;99.90;;;;;;7192839;33;20810;-77
2022/01/13 11:06:34;;;;;;;61.55;28.62;;;3.80;99.90;;;;;;7198896;32;20187;-78
2022/01/13 11:10:40;;;;;;;61.75;27.33;;;3.80;99.90;;;;;;7200824;32;20190;-78
2022/01/13 11:14:42;;;;;;;57.85;28.00;;;3.90;99.90;;;;;;7198961;32;20274;-77
2022/01/13 11:18:44;;;;;;;63.13;28.62;;;4.00;99.90;;;;;;7196701;32;20267;-78
2022/01/13 11:22:49;;;;;;;58.25;27.85;;;4.00;99.90;;;;;;7189372;32;20849;-77
2022/01/13 11:26:51;;;;;;;58.13;26.83;;;4.10;99.90;;;;;;7187583;32;20219;-78
2022/01/13 11:30:53;;;;;;;67.18;28.60;;;4.20;99.90;;;;;;7197943;32;20535;-78
2022/01/13 11:35:00;;;;;;;60.97;27.20;;;4.10;99.90;;;;;;7202230;32;20121;-77
2022/01/13 11:39:07;;;;;;;65.00;28.23;;;4.20;99.90;;;;;;7191720;32;20681;-78
2022/01/13 11:43:26;;;;;;;58.70;27.08;;;4.40;99.90;;;;;;7216861;32;20581;-77
2022/01/13 11:47:28;;;;;;;62.10;27.65;;;4.40;99.90;;;;;;7205099;32;20113;-79
2022/01/13 11:51:57;;;;;;;53.60;25.90;;;4.50;99.90;;;;;;7193683;32;20172;-84
2022/01/13 11:56:06;;;;;;;47.70;23.10;;;4.60;99.90;;;;;;7205484;32;20188;-83
2022/01/13 12:00:31;;;;;;;56.50;24.87;;;4.60;99.90;;;;;;7178586;32;20565;-78
2022/01/13 12:04:33;;;;;;;52.10;25.23;;;4.60;99.90;;;;;;7194528;32;20200;-78
2022/01/13 12:08:46;;;;;;;49.95;24.10;;;4.60;99.90;;;;;;7196251;32;20791;-77
2022/01/13 12:12:48;;;;;;;48.00;23.55;;;4.60;99.90;;;;;;7198490;32;20122;-78
2022/01/13 12:17:04;;;;;;;49.35;23.80;;;4.60;99.90;;;;;;7197652;32;20185;-77
2022/01/13 12:21:28;;;;;;;55.35;23.80;;;4.60;99.90;;;;;;7211695;32;20138;-77
2022/01/13 12:25:32;;;;;;;50.33;23.02;;;4.60;99.90;;;;;;7197497;32;20139;-82
2022/01/13 12:29:36;;;;;;;53.80;25.42;;;4.70;99.90;;;;;;7192710;32;20121;-79
2022/01/13 12:33:38;;;;;;;51.00;23.85;;;4.70;99.90;;;;;;7200012;32;20133;-78
2022/01/13 12:37:40;;;;;;;53.05;24.80;;;4.60;99.90;;;;;;7196406;32;20215;-83
2022/01/13 12:41:59;;;;;;;57.25;25.60;;;4.50;99.90;;;;;;7193551;32;20133;-78
2022/01/13 12:46:03;;;;;;;48.95;24.50;;;4.50;99.90;;;;;;7211214;32;20171;-78
2022/01/13 12:50:20;;;;;;;50.88;24.58;;;4.50;99.90;;;;;;7183322;32;20132;-85
2022/01/13 12:54:22;;;;;;;47.53;22.67;;;4.60;99.90;;;;;;7198507;32;20306;-78
2022/01/13 12:58:30;;;;;;;49.60;21.85;;;4.60;99.90;;;;;;7192934;32;20206;-77
2022/01/13 13:02:33;;;;;;;42.28;21.33;;;4.70;99.90;;;;;;7183514;32;20297;-83
2022/01/13 13:06:40;;;;;;;45.58;22.00;;;4.80;99.90;;;;;;7190777;32;20681;-79
2022/01/13 13:10:49;;;;;;;46.83;22.27;;;4.70;99.90;;;;;;7205975;32;20216;-79
2022/01/13 13:19:11;;;;;;;38.60;18.62;;;4.90;99.90;;;;;;7195295;32;20124;-78
2022/01/13 13:23:13;;;;;;;37.72;18.15;;;4.90;99.90;;;;;;7198951;32;20196;-78
2022/01/13 13:27:30;;;;;;;41.88;20.73;;;5.00;99.90;;;;;;7208213;32;20266;-84
2022/01/13 13:31:33;;;;;;;40.60;19.65;;;5.00;99.90;;;;;;7193558;32;20192;-79
2022/01/13 13:35:35;;;;;;;38.00;18.95;;;5.10;99.90;;;;;;7195274;32;20195;-78
2022/01/13 13:39:37;;;;;;;39.83;18.05;;;5.10;99.90;;;;;;7196532;32;20144;-83
2022/01/13 13:43:39;;;;;;;35.95;17.77;;;5.20;99.90;;;;;;7183136;32;20794;-78
2022/01/13 13:47:41;;;;;;;34.90;18.60;;;5.50;99.90;;;;;;7196191;32;20116;-80
2022/01/13 13:51:43;;;;;;;39.28;17.87;;;5.70;99.90;;;;;;7183068;32;20219;-78
2022/01/13 13:55:59;;;;;;;37.75;17.98;;;5.70;99.90;;;;;;7189233;32;20246;-80
2022/01/13 14:00:01;;;;;;;45.22;19.87;;;5.60;99.90;;;;;;7193497;32;20176;-84
2022/01/13 14:04:04;;;;;;;39.15;19.20;;;5.50;99.90;;;;;;7182006;32;20921;-77
2022/01/13 14:08:10;;;;;;;37.88;19.45;;;5.50;99.90;;;;;;7198918;32;20175;-77
2022/01/13 14:12:24;;;;;;;42.08;19.33;;;5.50;99.90;;;;;;7212311;32;20129;-78
2022/01/13 14:16:34;;;;;;;35.88;17.17;;;5.70;99.90;;;;;;7199407;32;20117;-77
2022/01/13 14:20:38;;;;;;;35.67;17.42;;;6.30;99.90;;;;;;7203060;32;20152;-77
2022/01/13 14:24:39;;;;;;;32.70;16.75;;;6.70;99.90;;;;;;7185555;32;20120;-83
2022/01/13 14:28:47;;;;;;;33.08;16.05;;;6.90;99.90;;;;;;7209995;32;20217;-78
2022/01/13 14:32:49;;;;;;;31.05;15.65;;;6.90;99.90;;;;;;7186681;32;20181;-79
2022/01/13 14:36:51;;;;;;;33.13;15.82;;;6.80;99.90;;;;;;7196420;33;20113;-77
2022/01/13 14:40:53;;;;;;;30.42;15.45;;;6.40;99.90;;;;;;7200181;32;20450;-80
2022/01/13 14:45:34;;;;;;;26.55;13.95;;;6.20;99.90;;;;;;7207163;32;20113;-78
2022/01/13 14:49:37;;;;;;;26.33;13.73;;;6.00;99.90;;;;;;7147948;33;20219;-79
2022/01/13 14:53:40;;;;;;;29.67;13.68;;;5.70;99.90;;;;;;7192843;32;20175;-78
2022/01/13 14:57:42;;;;;;;28.25;13.68;;;5.50;99.90;;;;;;7210440;32;20125;-78
2022/01/13 15:01:45;;;;;;;28.00;14.32;;;5.40;99.90;;;;;;7210383;32;20244;-77
2022/01/13 15:05:47;;;;;;;23.70;12.48;;;5.30;99.90;;;;;;7202391;32;20112;-79
2022/01/13 15:09:49;;;;;;;25.88;12.20;;;5.30;99.90;;;;;;7216290;32;20183;-85
2022/01/13 15:13:52;;;;;;;23.67;12.68;;;5.20;99.90;;;;;;7207791;32;20117;-77
2022/01/13 15:17:54;;;;;;;22.23;11.32;;;5.10;99.90;;;;;;7197358;32;20220;-77
2022/01/13 15:21:56;;;;;;;19.30;10.77;;;5.00;99.90;;;;;;7193178;32;20113;-77
2022/01/13 15:25:58;;;;;;;22.05;11.50;;;4.80;99.90;;;;;;7216408;32;20191;-77
2022/01/13 15:30:00;;;;;;;22.48;11.63;;;4.70;99.90;;;;;;7200580;32;20215;-82
2022/01/13 15:34:02;;;;;;;26.12;12.05;;;4.50;99.90;;;;;;7208347;32;20133;-77
2022/01/13 15:38:04;;;;;;;23.10;12.65;;;4.50;99.90;;;;;;7216910;32;20195;-79
2022/01/13 15:42:07;;;;;;;22.13;11.25;;;4.40;99.90;;;;;;7211028;32;20175;-77
2022/01/13 15:46:09;;;;;;;23.67;11.23;;;4.30;99.90;;;;;;7180489;32;20180;-77
2022/01/13 15:50:15;;;;;;;20.40;9.88;;;4.20;99.90;;;;;;7191378;32;20456;-78
2022/01/13 15:54:17;;;;;;;21.40;11.05;;;4.20;99.90;;;;;;7189566;32;20186;-77
2022/01/13 15:58:18;;;;;;;21.58;11.02;;;4.10;99.90;;;;;;7196882;32;20749;-78
2022/01/13 16:02:20;;;;;;;22.30;11.05;;;4.00;99.90;;;;;;7201375;32;20523;-79
2022/01/13 16:06:23;;;;;;;22.10;10.30;;;3.90;99.90;;;;;;7199720;32;20167;-79
2022/01/13 16:10:25;;;;;;;20.65;9.98;;;3.90;99.90;;;;;;7189692;32;20612;-78
2022/01/13 16:14:28;;;;;;;21.37;10.82;;;3.80;99.90;;;;;;7185058;32;20175;-78
2022/01/13 16:18:31;;;;;;;25.67;10.75;;;3.60;99.90;;;;;;7182592;32;20118;-79
2022/01/13 16:22:33;;;;;;;24.80;10.73;;;3.50;99.90;;;;;;7186648;32;20201;-78
2022/01/13 16:26:34;;;;;;;19.90;10.30;;;3.50;99.90;;;;;;7209605;32;20274;-77
2022/01/13 16:30:37;;;;;;;22.37;10.70;;;3.30;99.90;;;;;;7195039;32;20191;-77
2022/01/13 16:34:38;;;;;;;22.00;11.02;;;3.20;99.90;;;;;;7187357;32;20189;-77
2022/01/13 16:38:40;;;;;;;22.00;9.77;;;3.00;99.90;;;;;;7198975;32;20198;-77
2022/01/13 16:42:44;;;;;;;22.90;10.07;;;2.80;99.90;;;;;;7193788;32;20131;-77
2022/01/13 16:46:46;;;;;;;20.12;9.88;;;2.80;99.90;;;;;;7203516;32;20140;-78
2022/01/13 16:50:48;;;;;;;24.00;9.60;;;2.60;99.90;;;;;;7198108;32;20248;-78
2022/01/13 16:54:53;;;;;;;21.50;9.55;;;2.40;99.90;;;;;;7197127;32;20188;-78
2022/01/13 16:58:55;;;;;;;17.42;8.88;;;2.20;99.90;;;;;;7196701;32;20208;-77
2022/01/13 17:02:57;;;;;;;16.98;8.68;;;2.10;99.90;;;;;;7205657;32;20133;-77
2022/01/13 17:07:15;;;;;;;18.85;8.82;;;2.00;99.90;;;;;;7205910;32;20258;-77
2022/01/13 17:11:17;;;;;;;19.00;9.07;;;1.90;99.90;;;;;;7187696;32;20236;-78
2022/01/13 17:15:19;;;;;;;21.77;8.75;;;1.70;99.90;;;;;;7192491;32;20113;-78
2022/01/13 17:19:21;;;;;;;21.05;8.23;;;1.70;99.90;;;;;;7209844;32;20158;-77
2022/01/13 17:23:23;;;;;;;23.10;8.80;;;1.50;99.90;;;;;;7197352;32;20169;-78
2022/01/13 17:27:25;;;;;;;18.10;8.23;;;1.50;99.90;;;;;;7193574;32;20281;-78
2022/01/13 17:31:27;;;;;;;18.50;7.90;;;1.30;99.90;;;;;;7190862;32;20264;-78
2022/01/13 17:35:29;;;;;;;21.30;7.97;;;1.20;99.90;;;;;;7190340;32;20105;-78
2022/01/13 17:39:30;;;;;;;19.08;8.02;;;1.20;99.90;;;;;;7206849;32;20270;-78
2022/01/13 17:43:33;;;;;;;30.12;13.27;;;1.20;99.90;;;;;;7206375;32;20120;-78
2022/01/13 17:47:35;;;;;;;24.15;11.57;;;1.10;99.90;;;;;;7198214;32;20216;-78
2022/01/13 17:51:37;;;;;;;18.60;8.82;;;1.00;99.90;;;;;;7204994;32;20122;-78
2022/01/13 17:55:39;;;;;;;21.73;8.55;;;1.00;99.90;;;;;;7191044;32;20132;-78
2022/01/13 17:59:41;;;;;;;22.55;10.10;;;1.00;99.90;;;;;;7191221;32;20282;-77
2022/01/13 18:03:43;;;;;;;21.55;9.52;;;0.90;99.90;;;;;;7201446;32;20146;-78
2022/01/13 18:07:45;;;;;;;18.40;9.25;;;0.90;99.90;;;;;;7185567;32;20212;-77
2022/01/13 18:11:47;;;;;;;19.52;9.73;;;0.80;99.90;;;;;;7179178;32;20180;-77
2022/01/13 18:15:50;;;;;;;21.73;9.93;;;0.80;99.90;;;;;;7188527;32;20139;-77
2022/01/13 18:19:52;;;;;;;20.35;9.32;;;0.70;99.90;;;;;;7201889;32;20143;-77
2022/01/13 18:23:58;;;;;;;21.83;9.27;;;0.70;99.90;;;;;;7215584;32;20192;-76
2022/01/13 18:28:00;;;;;;;21.45;9.43;;;0.70;99.90;;;;;;7193967;32;20137;-78
2022/01/13 18:32:03;;;;;;;20.02;9.75;;;0.60;99.90;;;;;;7190600;32;20125;-77
2022/01/13 18:36:04;;;;;;;18.27;10.63;;;0.60;99.90;;;;;;7190490;33;20231;-77
2022/01/13 18:40:07;;;;;;;24.98;10.38;;;0.60;99.90;;;;;;7185251;33;20117;-78
2022/01/13 18:44:09;;;;;;;18.02;8.90;;;0.60;99.90;;;;;;7224847;33;20300;-77
2022/01/13 18:48:11;;;;;;;24.55;10.75;;;0.50;99.90;;;;;;7199699;33;20140;-77
2022/01/13 18:52:13;;;;;;;24.77;11.00;;;0.50;99.90;;;;;;7180032;32;20117;-77
2022/01/13 18:56:15;;;;;;;23.95;10.15;;;0.50;99.90;;;;;;7190866;33;20285;-78
2022/01/13 19:00:17;;;;;;;22.40;9.15;;;0.40;99.90;;;;;;7200350;33;20168;-77
2022/01/13 19:04:20;;;;;;;20.08;9.15;;;0.30;99.90;;;;;;7182187;33;20132;-78
2022/01/13 19:08:22;;;;;;;22.83;10.45;;;0.30;99.90;;;;;;7186259;33;20178;-80
2022/01/13 19:12:23;;;;;;;19.85;9.52;;;0.30;99.90;;;;;;7181832;33;20216;-78
2022/01/13 19:16:25;;;;;;;17.75;9.13;;;0.30;99.90;;;;;;7183101;33;20342;-78
2022/01/13 19:20:29;;;;;;;22.20;9.63;;;0.30;99.90;;;;;;7197506;33;20144;-78
2022/01/13 19:24:31;;;;;;;26.58;12.25;;;0.20;99.90;;;;;;7196521;32;20116;-78
2022/01/13 19:28:33;;;;;;;33.90;14.98;;;0.20;99.90;;;;;;7205863;32;20231;-78
2022/01/13 19:32:35;;;;;;;25.02;12.02;;;0.10;99.90;;;;;;7205249;32;20204;-78
2022/01/13 19:36:37;;;;;;;26.85;11.40;;;0.10;99.90;;;;;;7194400;32;20790;-78
2022/01/13 19:40:43;;;;;;;29.35;11.40;;;0.00;99.90;;;;;;7198351;32;20108;-78
2022/01/13 19:44:45;;;;;;;24.98;11.95;;;0.00;99.90;;;;;;7206844;32;20454;-77
2022/01/13 19:48:47;;;;;;;24.83;11.02;;;0.00;99.90;;;;;;7202101;32;20140;-78
2022/01/13 19:52:50;;;;;;;29.35;13.50;;;0.00;99.90;;;;;;7210643;32;20195;-78
2022/01/13 19:56:52;;;;;;;27.77;12.93;;;0.00;99.90;;;;;;7200852;32;20113;-78
2022/01/13 20:00:54;;;;;;;27.95;13.30;;;0.00;99.90;;;;;;7194122;32;20223;-77
2022/01/13 20:04:57;;;;;;;28.92;13.15;;;0.00;99.90;;;;;;7184540;32;20240;-77
2022/01/13 20:08:59;;;;;;;30.70;14.23;;;-0.10;99.90;;;;;;7192722;32;20188;-78
2022/01/13 20:13:02;;;;;;;27.80;13.70;;;0.00;99.90;;;;;;7196540;32;20196;-76
2022/01/13 20:17:06;;;;;;;25.98;12.45;;;-0.10;99.90;;;;;;7197297;32;20549;-77
2022/01/13 20:21:13;;;;;;;43.00;20.20;;;-0.10;99.90;;;;;;7191869;32;20486;-78
2022/01/13 20:25:17;;;;;;;41.90;18.80;;;-0.10;99.90;;;;;;7196473;32;20200;-78
2022/01/13 20:29:18;;;;;;;30.58;14.25;;;-0.10;99.90;;;;;;7199726;32;20167;-79
2022/01/13 20:33:20;;;;;;;37.15;15.05;;;-0.10;99.90;;;;;;7208795;32;20617;-78
2022/01/13 20:37:22;;;;;;;34.80;16.10;;;-0.10;99.90;;;;;;7194748;32;20118;-78
2022/01/13 20:41:27;;;;;;;35.53;17.58;;;-0.20;99.90;;;;;;7208133;32;20102;-77
2022/01/13 20:45:29;;;;;;;34.17;15.68;;;-0.20;99.90;;;;;;7192407;32;20109;-78
2022/01/13 20:49:30;;;;;;;33.47;13.07;;;-0.20;99.90;;;;;;7198921;32;20204;-79
2022/01/13 20:53:33;;;;;;;26.33;12.43;;;-0.20;99.90;;;;;;7210178;32;20693;-78
2022/01/13 20:57:35;;;;;;;28.15;13.43;;;-0.30;99.90;;;;;;7198212;32;20574;-78
2022/01/13 21:01:40;;;;;;;28.92;12.60;;;-0.20;99.90;;;;;;7194020;32;20482;-78
2022/01/13 21:05:42;;;;;;;31.58;12.50;;;-0.30;99.90;;;;;;7196759;32;20117;-78
2022/01/13 21:09:44;;;;;;;42.13;19.00;;;-0.30;99.90;;;;;;7183051;32;20261;-77